CheckWX is a tool to help pilots better visualize weather data.  It is not intended as a substitute for an official pre-flight weather briefing.

18:37:04 UTC

KSMF METAR
Sacramento International Airport
Sacramento, California, USA
Current

44 mins ago

KSMF 201753Z 30004KT 10SM BKN250 12/06 A3019 RMK AO2 SLP222 T01170061 10117 20039 51014 PNO $
Observed
Feb-20 @ 17:53 UTC
Wind
  • 300° at 4 KTS
Visibility
10 SM
Flight Rules
VFR
Cloud Levels
  • Broken at 25,000' AGL
Temperature
12°C / 54°F
Dewpoint
C / 43°F
Humidity
67%
Altimeter
30.19" Hg
Pressure
1022.32 hPa
Previous

1 hour ago

KSMF 201730Z 1/4SM HZ CLR 10/06 A3019 RMK AO2 T01000061 RVRNO PNO $
Observed
Feb-20 @ 17:30 UTC
Visibility
1/4 SM
Flight Rules
LIFR
Conditions
Haze
Cloud Levels
  • Clear skies
Temperature
10°C / 50°F
Dewpoint
C / 43°F
Humidity
76%
Altimeter
30.19" Hg
Pressure
1022.32 hPa
Previous

1 hour ago

KSMF 201730Z COR 10SM BKN250 10/06 A3019 RMK AO2 T01000061 RVRNO PNO $
Observed
Feb-20 @ 17:30 UTC
Visibility
10 SM
Flight Rules
VFR
Cloud Levels
  • Broken at 25,000' AGL
Temperature
10°C / 50°F
Dewpoint
C / 43°F
Humidity
76%
Altimeter
30.19" Hg
Pressure
1022.32 hPa